BYU2
, Provo
Last Weather Update:1/30/2012 11:00:00 PM
Date
ETo
ETc
Rain
Irrigation
Req
Temp
Max
Temp
Min
Temp
Avg
Avg RH
Avg Wind
Avg Solar
inches
inches
incehs
inches
F
F
F
%
%
watts/m2
12/1/2011 0.04" 0.00" 0.00" 0.00" 46.1° 28.6° 37.1° 59.2% 4.0 MPH 94.5w/m2
12/2/2011 0.02" 0.00" 0.00" 0.00" 39.0° 24.1° 30.4° 70.6% 2.4 MPH 70.8w/m2
12/3/2011 0.02" 0.00" 0.01" -0.01" 36.1° 24.3° 29.2° 80.0% 2.3 MPH 71.4w/m2
12/4/2011 0.02" 0.00" 0.00" 0.00" 30.5° 23.3° 26.3° 79.2% 1.8 MPH 63.1w/m2
12/5/2011 0.03" 0.00" 0.00" 0.00" 29.1° 17.1° 22.7° 69.2% 2.5 MPH 118.6w/m2
12/6/2011 0.02" 0.00" 0.00" 0.00" 30.9° 12.8° 20.4° 64.3% 1.3 MPH 105.3w/m2
12/7/2011 0.03" 0.00" 0.00" 0.00" 34.7° 15.2° 23.9° 66.0% 1.0 MPH 107.5w/m2
12/8/2011 0.03" 0.00" 0.00" 0.00" 38.6° 19.1° 27.2° 72.0% 0.8 MPH 105.9w/m2
12/9/2011 0.03" 0.00" 0.00" 0.00" 42.2° 19.3° 28.3° 75.9% 0.8 MPH 104.2w/m2
12/10/2011 0.03" 0.00" 0.00" 0.00" 41.4° 18.7° 28.3° 72.4% 1.0 MPH 105.9w/m2
12/11/2011 0.03" 0.00" 0.00" 0.00" 52.0° 21.5° 33.1° 63.9% 0.9 MPH 103.5w/m2
12/12/2011 0.02" 0.00" 0.00" 0.00" 43.0° 24.6° 34.2° 64.6% 1.5 MPH 51.3w/m2
12/13/2011 0.02" 0.00" 0.04" -0.04" 43.7° 30.5° 34.7° 87.8% 1.8 MPH 51.1w/m2
12/14/2011 0.01" 0.00" 0.01" -0.01" 37.2° 25.2° 31.5° 93.1% 1.1 MPH 40.2w/m2
12/15/2011 0.02" 0.00" 0.00" 0.00" 37.4° 20.0° 27.1° 88.7% 1.2 MPH 81.7w/m2
12/16/2011 0.01" 0.00" 0.00" 0.00" 29.0° 20.8° 25.5° 90.6% 1.8 MPH 29.7w/m2
12/17/2011 0.03" 0.00" 0.00" 0.00" 36.3° 17.7° 24.6° 87.5% 1.1 MPH 95.0w/m2
12/18/2011 0.01" 0.00" 0.00" 0.00" 24.8° 17.8° 21.5° 99.8% 1.6 MPH 27.1w/m2
12/19/2011 0.01" 0.00" 0.00" 0.00" 27.4° 22.4° 25.1° 92.7% 1.7 MPH 23.0w/m2
12/20/2011 0.02" 0.00" 0.00" 0.00" 30.6° 25.8° 27.7° 82.6% 1.0 MPH 25.9w/m2
12/21/2011 0.02" 0.00" 0.01" -0.01" 34.0° 24.2° 27.1° 83.7% 2.3 MPH 72.2w/m2
12/22/2011 0.03" 0.00" 0.00" 0.00" 35.0° 19.4° 27.1° 74.8% 2.9 MPH 105.7w/m2
12/23/2011 0.03" 0.00" 0.00" 0.00" 32.2° 15.0° 22.4° 68.0% 1.3 MPH 103.8w/m2
12/24/2011 0.03" 0.00" 0.00" 0.00" 34.2° 13.7° 23.2° 67.0% 1.1 MPH 102.2w/m2
12/25/2011 0.03" 0.00" 0.00" 0.00" 41.4° 16.3° 27.0° 62.2% 1.2 MPH 101.0w/m2
12/26/2011 0.03" 0.00" 0.00" 0.00" 40.2° 18.1° 27.4° 69.1% 1.0 MPH 96.1w/m2
12/27/2011 0.03" 0.00" 0.00" 0.00" 41.9° 20.0° 29.1° 65.5% 1.7 MPH 95.1w/m2
12/28/2011 0.02" 0.00" 0.00" 0.00" 47.0° 23.0° 34.4° 60.9% 1.4 MPH 47.5w/m2
12/29/2011 0.03" 0.00" 0.01" -0.01" 55.0° 36.3° 44.7° 56.5% 2.1 MPH 36.4w/m2
12/30/2011 0.04" 0.00" 0.00" 0.00" 58.0° 33.5° 45.7° 58.9% 1.9 MPH 48.2w/m2
12/31/2011 0.05" 0.00" 0.00" 0.00" 49.4° 24.0° 34.2° 41.8% 5.3 MPH 106.4w/m2
Totals: 0.81" 0.00" 0.08" -0.08" 58.0° 12.8° 29.1° 73.2% 1.7 MPH 77.1w/m2